Time;durP1;ratioP1;P1;durP2;ratioP2;P2;SDS_P1;SDS_P2;PMS_P1;PMS_P2;Temp;Humidity;BMP_temperature;BMP_pressure;BME280_temperature;BME280_humidity;BME280_pressure;Samples;Min_cycle;Max_cycle;Signal;HPM_P1;HPM_P2
2023/07/26 00:00:25;;;;;;;5.97;3.13;;;;;;;;;;5960835;28;20043;-77
2023/07/26 00:03:16;;;;;;;6.53;2.92;;;;;;;;;;5948088;28;20190;-77
2023/07/26 00:06:07;;;;;;;3.00;2.40;;;;;;;;;;5955073;28;20055;-76
2023/07/26 00:08:58;;;;;;;6.50;2.28;;;;;;;;;;5961444;28;20398;-76
2023/07/26 00:11:48;;;;;;;4.60;3.33;;;;;;;;;;5961169;28;20142;-77
2023/07/26 00:14:39;;;;;;;31.70;2.95;;;;;;;;;;5961071;28;20130;-76
2023/07/26 00:17:30;;;;;;;2.40;2.17;;;;;;;;;;5960929;28;20485;-77
2023/07/26 00:20:21;;;;;;;9.40;2.72;;;;;;;;;;5960986;28;20044;-77
2023/07/26 00:23:12;;;;;;;9.70;2.58;;;;;;;;;;5960715;28;20063;-76
2023/07/26 00:26:02;;;;;;;5.40;3.25;;;;;;;;;;5960908;28;20520;-77
2023/07/26 00:28:53;;;;;;;38.15;3.58;;;;;;;;;;5961033;28;20047;-77
2023/07/26 00:31:44;;;;;;;6.63;3.97;;;;;;;;;;5960090;28;20387;-76
2023/07/26 00:34:35;;;;;;;4.07;2.70;;;;;;;;;;5960552;28;20127;-77
2023/07/26 00:37:26;;;;;;;5.47;2.65;;;;;;;;;;5960811;28;20478;-76
2023/07/26 00:40:17;;;;;;;3.63;2.80;;;;;;;;;;5960478;28;20062;-77
2023/07/26 00:43:08;;;;;;;3.25;2.95;;;;;;;;;;5942149;28;20046;-77
2023/07/26 00:45:59;;;;;;;3.63;2.60;;;;;;;;;;5961014;28;20445;-76
2023/07/26 00:48:50;;;;;;;2.15;1.98;;;;;;;;;;5925589;28;20039;-76
2023/07/26 00:51:41;;;;;;;3.25;2.60;;;;;;;;;;5960104;27;20051;-76
2023/07/26 00:54:32;;;;;;;2.70;2.03;;;;;;;;;;5960206;28;20386;-76
2023/07/26 00:57:23;;;;;;;1.70;1.60;;;;;;;;;;5959912;28;20063;-77
2023/07/26 01:00:14;;;;;;;3.13;2.17;;;;;;;;;;5942001;28;20048;-76
2023/07/26 01:03:05;;;;;;;2.13;1.48;;;;;;;;;;5960250;28;20375;-77
2023/07/26 01:06:40;;;;;;;2.42;1.20;;;;;;;;;;5942587;28;20040;-76
2023/07/26 01:09:48;;;;;;;2.90;2.38;;;;;;;;;;5918861;28;20079;-76
2023/07/26 01:12:52;;;;;;;3.40;2.17;;;;;;;;;;5927718;28;20356;-76
2023/07/26 01:15:46;;;;;;;2.17;1.13;;;;;;;;;;5935644;28;20051;-77
2023/07/26 01:18:37;;;;;;;7.10;3.00;;;;;;;;;;5927424;28;20363;-76
2023/07/26 01:21:34;;;;;;;2.45;2.20;;;;;;;;;;5933361;28;20036;-76
2023/07/26 01:24:25;;;;;;;1.83;1.63;;;;;;;;;;5913058;28;20454;-77
2023/07/26 01:27:16;;;;;;;1.52;1.38;;;;;;;;;;5927327;28;20064;-77
2023/07/26 01:30:07;;;;;;;2.58;1.40;;;;;;;;;;5935183;28;20285;-76
2023/07/26 01:33:07;;;;;;;3.13;2.42;;;;;;;;;;5927745;28;20050;-76
2023/07/26 01:35:59;;;;;;;4.38;2.47;;;;;;;;;;5940856;28;20120;-77
2023/07/26 01:38:52;;;;;;;1.63;1.20;;;;;;;;;;5951156;28;20126;-76
2023/07/26 01:41:43;;;;;;;2.33;1.92;;;;;;;;;;5954380;28;20040;-77
2023/07/26 01:44:36;;;;;;;1.73;1.63;;;;;;;;;;5954316;28;20046;-77
2023/07/26 01:47:27;;;;;;;3.97;2.88;;;;;;;;;;5950520;28;20055;-77
2023/07/26 01:50:18;;;;;;;1.52;1.42;;;;;;;;;;5958874;28;20126;-76
2023/07/26 01:53:09;;;;;;;4.40;3.20;;;;;;;;;;5950526;28;20135;-77
2023/07/26 01:56:01;;;;;;;5.90;1.67;;;;;;;;;;5959157;28;20039;-76
2023/07/26 01:58:52;;;;;;;2.30;1.75;;;;;;;;;;5950560;28;20035;-77
2023/07/26 02:01:42;;;;;;;2.33;1.40;;;;;;;;;;5953982;28;20055;-77
2023/07/26 02:04:33;;;;;;;2.53;1.95;;;;;;;;;;5955050;28;20398;-77
2023/07/26 02:07:24;;;;;;;2.10;1.88;;;;;;;;;;5950077;28;20506;-76
2023/07/26 02:10:15;;;;;;;3.08;2.55;;;;;;;;;;5958464;28;20054;-77
2023/07/26 02:13:06;;;;;;;2.53;2.05;;;;;;;;;;5950047;28;20043;-77
2023/07/26 02:15:57;;;;;;;2.63;2.35;;;;;;;;;;5940744;28;20051;-77
2023/07/26 02:18:48;;;;;;;2.08;1.55;;;;;;;;;;5958343;28;20462;-76
2023/07/26 02:21:38;;;;;;;2.33;2.13;;;;;;;;;;5954106;28;20097;-77
2023/07/26 02:24:29;;;;;;;3.33;2.38;;;;;;;;;;5953961;28;20392;-77
2023/07/26 02:27:20;;;;;;;2.97;1.60;;;;;;;;;;5958172;28;20055;-76
2023/07/26 02:30:11;;;;;;;2.10;1.90;;;;;;;;;;5958056;28;20044;-76
2023/07/26 02:33:02;;;;;;;2.40;1.80;;;;;;;;;;5958076;28;20481;-77
2023/07/26 02:35:53;;;;;;;2.42;1.65;;;;;;;;;;5958503;28;20043;-77
2023/07/26 02:38:44;;;;;;;4.45;2.60;;;;;;;;;;5949489;28;20043;-77
2023/07/26 02:41:34;;;;;;;2.42;2.00;;;;;;;;;;5957694;28;20477;-77
2023/07/26 02:44:25;;;;;;;1.52;1.27;;;;;;;;;;5957882;28;20047;-77
2023/07/26 02:47:16;;;;;;;4.90;2.22;;;;;;;;;;5957906;28;20039;-77
2023/07/26 02:50:07;;;;;;;3.10;2.22;;;;;;;;;;5957742;28;20050;-76
2023/07/26 02:52:58;;;;;;;4.13;1.92;;;;;;;;;;5958354;28;20055;-77
2023/07/26 02:55:49;;;;;;;2.95;2.20;;;;;;;;;;5957356;28;20048;-77
2023/07/26 02:58:40;;;;;;;3.72;2.28;;;;;;;;;;5957473;28;20039;-77
2023/07/26 03:01:31;;;;;;;1.88;1.40;;;;;;;;;;5954882;28;20052;-77
2023/07/26 03:04:22;;;;;;;1.40;1.30;;;;;;;;;;5934593;28;20044;-76
2023/07/26 03:07:13;;;;;;;4.82;1.95;;;;;;;;;;5957466;28;20399;-77
2023/07/26 03:10:04;;;;;;;2.70;2.00;;;;;;;;;;5939593;28;20050;-77
2023/07/26 03:12:55;;;;;;;1.83;1.35;;;;;;;;;;5958189;28;20039;-77
2023/07/26 03:15:46;;;;;;;1.92;1.67;;;;;;;;;;5939583;28;20067;-77
2023/07/26 03:18:37;;;;;;;2.30;1.88;;;;;;;;;;5957655;28;20135;-77
2023/07/26 03:21:27;;;;;;;1.02;0.93;;;;;;;;;;5957390;28;20388;-77
2023/07/26 03:24:18;;;;;;;1.25;1.15;;;;;;;;;;5957473;28;20054;-77
2023/07/26 03:27:09;;;;;;;2.97;1.98;;;;;;;;;;5957479;28;20467;-77
2023/07/26 03:30:00;;;;;;;2.78;2.10;;;;;;;;;;5957945;28;20044;-77
2023/07/26 03:32:51;;;;;;;2.55;2.35;;;;;;;;;;5957495;28;20063;-77
2023/07/26 03:35:41;;;;;;;1.95;1.73;;;;;;;;;;5957290;28;20077;-77
2023/07/26 03:38:32;;;;;;;1.95;1.73;;;;;;;;;;5957126;28;20127;-77
2023/07/26 03:41:23;;;;;;;1.48;1.30;;;;;;;;;;5957133;28;20044;-77
2023/07/26 03:44:14;;;;;;;8.48;2.00;;;;;;;;;;5957135;28;20044;-77
2023/07/26 03:47:05;;;;;;;3.13;2.17;;;;;;;;;;5939338;28;20043;-76
2023/07/26 03:49:56;;;;;;;1.92;1.75;;;;;;;;;;5957652;28;20048;-77
2023/07/26 03:52:47;;;;;;;3.08;2.17;;;;;;;;;;5957060;28;20395;-77
2023/07/26 03:55:37;;;;;;;1.98;1.83;;;;;;;;;;5957169;28;20047;-77
2023/07/26 03:58:28;;;;;;;4.18;2.85;;;;;;;;;;5957115;28;20039;-76
2023/07/26 04:01:19;;;;;;;7.13;3.50;;;;;;;;;;5957071;28;20047;-77
2023/07/26 04:04:10;;;;;;;5.13;2.90;;;;;;;;;;5957014;28;20430;-77
2023/07/26 04:07:02;;;;;;;4.13;2.97;;;;;;;;;;5958354;28;20554;-77
2023/07/26 04:09:53;;;;;;;2.88;2.55;;;;;;;;;;5961685;28;20146;-77
2023/07/26 04:12:44;;;;;;;2.92;2.67;;;;;;;;;;5961096;28;20052;-76
2023/07/26 04:15:35;;;;;;;3.60;2.55;;;;;;;;;;5961183;28;20367;-76
2023/07/26 04:18:29;;;;;;;14.13;2.45;;;;;;;;;;5961085;28;20039;-77
2023/07/26 04:21:20;;;;;;;3.15;2.20;;;;;;;;;;5961018;28;20043;-77
2023/07/26 04:24:11;;;;;;;5.63;2.47;;;;;;;;;;5960842;28;20054;-77
2023/07/26 04:27:02;;;;;;;4.25;2.45;;;;;;;;;;5942953;28;20066;-76
2023/07/26 04:29:53;;;;;;;2.53;2.33;;;;;;;;;;5961437;28;20444;-77
2023/07/26 04:32:43;;;;;;;8.15;3.13;;;;;;;;;;5960851;28;20478;-77
2023/07/26 04:35:34;;;;;;;4.38;2.90;;;;;;;;;;5960757;28;20093;-77
2023/07/26 04:38:25;;;;;;;3.60;2.25;;;;;;;;;;5960626;28;20135;-77
2023/07/26 04:41:16;;;;;;;4.72;2.28;;;;;;;;;;5960449;28;20047;-77
2023/07/26 04:44:08;;;;;;;3.22;1.95;;;;;;;;;;5960514;28;20035;-77
2023/07/26 04:46:59;;;;;;;1.70;1.60;;;;;;;;;;5943285;28;20474;-77
2023/07/26 04:49:50;;;;;;;4.95;2.75;;;;;;;;;;5960250;28;20173;-76
2023/07/26 04:52:40;;;;;;;3.22;2.85;;;;;;;;;;5960195;28;20050;-76
2023/07/26 04:55:32;;;;;;;2.38;1.88;;;;;;;;;;5960207;28;20051;-77
2023/07/26 04:58:23;;;;;;;2.95;2.15;;;;;;;;;;5960314;28;20054;-77
2023/07/26 05:01:13;;;;;;;3.97;2.28;;;;;;;;;;5960084;28;20040;-77
2023/07/26 05:04:04;;;;;;;4.28;2.70;;;;;;;;;;5941931;28;20086;-76
2023/07/26 05:06:55;;;;;;;4.72;3.40;;;;;;;;;;5960573;28;20040;-77
2023/07/26 05:09:46;;;;;;;4.40;2.33;;;;;;;;;;5959843;28;20044;-77
2023/07/26 05:12:37;;;;;;;4.47;3.13;;;;;;;;;;5959967;28;20046;-77
2023/07/26 05:15:27;;;;;;;3.05;2.33;;;;;;;;;;5959915;28;20112;-76
2023/07/26 05:18:18;;;;;;;4.93;3.60;;;;;;;;;;5959732;28;20175;-76
2023/07/26 05:21:09;;;;;;;3.50;2.80;;;;;;;;;;5959737;28;20078;-77
2023/07/26 05:24:00;;;;;;;7.82;2.80;;;;;;;;;;5960004;28;20044;-77
2023/07/26 05:26:50;;;;;;;3.78;2.47;;;;;;;;;;5959968;28;20036;-77
2023/07/26 05:29:41;;;;;;;7.60;3.97;;;;;;;;;;5959230;28;20062;-77
2023/07/26 05:32:32;;;;;;;3.88;2.03;;;;;;;;;;5959466;28;20509;-77
2023/07/26 05:35:23;;;;;;;5.15;3.40;;;;;;;;;;5959282;28;20043;-77
2023/07/26 05:38:14;;;;;;;3.78;2.63;;;;;;;;;;5959323;28;20053;-77
2023/07/26 05:41:05;;;;;;;4.50;2.63;;;;;;;;;;5959462;28;20050;-77
2023/07/26 05:43:56;;;;;;;5.57;1.85;;;;;;;;;;5959467;28;20093;-78
2023/07/26 05:46:47;;;;;;;4.13;2.65;;;;;;;;;;5958980;28;20048;-76
2023/07/26 05:49:43;;;;;;;6.68;2.80;;;;;;;;;;5958991;28;20470;-77
2023/07/26 05:52:33;;;;;;;3.47;2.25;;;;;;;;;;5959107;28;20039;-78
2023/07/26 05:55:24;;;;;;;6.93;2.67;;;;;;;;;;5959049;28;20077;-77
2023/07/26 05:58:15;;;;;;;3.30;1.48;;;;;;;;;;5958791;28;20394;-77
2023/07/26 06:01:06;;;;;;;2.88;2.58;;;;;;;;;;5958919;28;20075;-77
2023/07/26 06:03:57;;;;;;;4.53;1.67;;;;;;;;;;5941200;28;20043;-77
2023/07/26 06:06:48;;;;;;;1.70;1.08;;;;;;;;;;5958461;28;20043;-78
2023/07/26 06:09:39;;;;;;;1.27;1.17;;;;;;;;;;5958463;28;20074;-78
2023/07/26 06:12:29;;;;;;;2.78;1.30;;;;;;;;;;5940511;28;20470;-78
2023/07/26 06:15:20;;;;;;;4.63;1.30;;;;;;;;;;5958669;28;20047;-78
2023/07/26 06:18:11;;;;;;;0.73;0.60;;;;;;;;;;5958621;28;20142;-79
2023/07/26 06:21:02;;;;;;;3.47;1.65;;;;;;;;;;5940680;28;20453;-79
2023/07/26 06:23:53;;;;;;;1.20;1.10;;;;;;;;;;5959007;28;20043;-79
2023/07/26 06:26:44;;;;;;;0.68;0.68;;;;;;;;;;5940591;28;20381;-79
2023/07/26 06:29:36;;;;;;;0.85;0.80;;;;;;;;;;5939908;28;20042;-79
2023/07/26 06:32:27;;;;;;;2.17;1.40;;;;;;;;;;5958510;28;20043;-79
2023/07/26 06:35:18;;;;;;;3.88;1.30;;;;;;;;;;5958374;28;20108;-78
2023/07/26 06:38:09;;;;;;;0.75;0.75;;;;;;;;;;5958294;28;20058;-79
2023/07/26 06:41:00;;;;;;;1.70;1.15;;;;;;;;;;5958612;28;20040;-78
2023/07/26 06:43:52;;;;;;;2.03;1.05;;;;;;;;;;5958267;28;20161;-78
2023/07/26 06:46:42;;;;;;;0.73;0.73;;;;;;;;;;5958153;28;20047;-78
2023/07/26 06:49:34;;;;;;;2.55;1.48;;;;;;;;;;5958191;28;20055;-77
2023/07/26 06:52:30;;;;;;;1.52;1.38;;;;;;;;;;5958178;28;20046;-78
2023/07/26 06:55:21;;;;;;;1.10;1.00;;;;;;;;;;5958098;28;20054;-78
2023/07/26 06:58:11;;;;;;;1.52;1.35;;;;;;;;;;5958055;28;20039;-78
2023/07/26 07:01:02;;;;;;;1.65;1.25;;;;;;;;;;5957915;28;20062;-77
2023/07/26 07:03:53;;;;;;;0.85;0.82;;;;;;;;;;5958471;28;20112;-78
2023/07/26 07:07:02;;;;;;;0.82;0.82;;;;;;;;;;5957578;28;20036;-77
2023/07/26 07:09:53;;;;;;;1.58;1.30;;;;;;;;;;5958268;28;20595;-77
2023/07/26 07:12:44;;;;;;;1.40;1.30;;;;;;;;;;5957893;28;20048;-78
2023/07/26 07:15:35;;;;;;;1.27;1.13;;;;;;;;;;5957715;28;20048;-78
2023/07/26 07:18:26;;;;;;;0.80;0.80;;;;;;;;;;5957859;28;20394;-79
2023/07/26 07:21:16;;;;;;;1.40;1.17;;;;;;;;;;5957657;28;20051;-79
2023/07/26 07:24:08;;;;;;;2.60;1.25;;;;;;;;;;5957716;28;20046;-78
2023/07/26 07:26:59;;;;;;;7.32;4.57;;;;;;;;;;5958412;28;20039;-78
2023/07/26 07:29:50;;;;;;;9.63;7.35;;;;;;;;;;5957703;28;20066;-78
2023/07/26 07:32:41;;;;;;;21.83;11.52;;;;;;;;;;5939559;28;20055;-78
2023/07/26 07:35:32;;;;;;;3.70;3.03;;;;;;;;;;5957752;28;20051;-78
2023/07/26 07:38:23;;;;;;;1.83;1.70;;;;;;;;;;5957491;28;20047;-78
2023/07/26 07:41:14;;;;;;;1.35;0.90;;;;;;;;;;5957559;28;20168;-77
2023/07/26 07:44:05;;;;;;;0.80;0.80;;;;;;;;;;5962113;28;20528;-77
2023/07/26 07:46:57;;;;;;;4.53;2.40;;;;;;;;;;5962774;28;20383;-77
2023/07/26 07:49:54;;;;;;;1.30;0.95;;;;;;;;;;5962307;28;20127;-77
2023/07/26 07:52:45;;;;;;;1.10;1.00;;;;;;;;;;5961828;28;20413;-77
2023/07/26 07:55:40;;;;;;;1.52;1.15;;;;;;;;;;5961744;28;20120;-76
2023/07/26 07:58:30;;;;;;;1.02;0.90;;;;;;;;;;5961640;28;20059;-77
2023/07/26 08:01:22;;;;;;;0.55;0.55;;;;;;;;;;5961488;28;20054;-76
2023/07/26 08:04:12;;;;;;;0.82;0.70;;;;;;;;;;5943761;28;20501;-77
2023/07/26 08:07:05;;;;;;;7.43;1.13;;;;;;;;;;5961599;28;20044;-77
2023/07/26 08:09:55;;;;;;;5.07;1.27;;;;;;;;;;5944091;28;20494;-77
2023/07/26 08:12:46;;;;;;;2.65;1.15;;;;;;;;;;5961404;28;20048;-76
2023/07/26 08:15:38;;;;;;;2.03;1.42;;;;;;;;;;5943097;28;20055;-76
2023/07/26 08:18:29;;;;;;;1.38;1.13;;;;;;;;;;5961429;28;20375;-77
2023/07/26 08:21:19;;;;;;;1.13;1.02;;;;;;;;;;5961127;28;20051;-77
2023/07/26 08:24:11;;;;;;;1.17;1.10;;;;;;;;;;5961245;28;20044;-77
2023/07/26 08:27:02;;;;;;;7.40;3.15;;;;;;;;;;5961208;28;20450;-77
2023/07/26 08:29:53;;;;;;;1.52;1.30;;;;;;;;;;5961544;28;20039;-77
2023/07/26 08:32:44;;;;;;;4.95;1.58;;;;;;;;;;5960925;28;20426;-78
2023/07/26 08:35:35;;;;;;;2.05;1.17;;;;;;;;;;5960963;28;20043;-77
2023/07/26 08:38:26;;;;;;;3.70;2.03;;;;;;;;;;5960918;28;20038;-77
2023/07/26 08:41:17;;;;;;;2.67;2.47;;;;;;;;;;5960565;28;20036;-77
2023/07/26 08:44:09;;;;;;;1.63;1.25;;;;;;;;;;5960567;28;20048;-77
2023/07/26 08:47:04;;;;;;;2.65;1.92;;;;;;;;;;5961279;28;20075;-77
2023/07/26 08:49:56;;;;;;;1.83;1.40;;;;;;;;;;5943038;28;20123;-77
2023/07/26 08:52:47;;;;;;;1.85;1.25;;;;;;;;;;5933754;28;20130;-77
2023/07/26 08:55:38;;;;;;;0.93;0.82;;;;;;;;;;5960422;28;20535;-77
2023/07/26 08:58:29;;;;;;;1.08;0.98;;;;;;;;;;5952179;28;20036;-77
2023/07/26 09:01:22;;;;;;;0.68;0.68;;;;;;;;;;5960185;28;20047;-77
2023/07/26 09:04:14;;;;;;;0.82;0.60;;;;;;;;;;5960257;28;20043;-77
2023/07/26 09:07:06;;;;;;;0.60;0.55;;;;;;;;;;5952685;28;20051;-77
2023/07/26 09:09:57;;;;;;;0.98;0.60;;;;;;;;;;5960322;28;20067;-77
2023/07/26 09:12:49;;;;;;;0.30;0.30;;;;;;;;;;5941963;28;20367;-76
2023/07/26 09:15:42;;;;;;;0.95;0.68;;;;;;;;;;5960035;28;20047;-77
2023/07/26 09:18:34;;;;;;;0.40;0.30;;;;;;;;;;5941724;28;20048;-77
2023/07/26 09:21:36;;;;;;;0.38;0.38;;;;;;;;;;5959798;28;20040;-76
2023/07/26 09:24:39;;;;;;;0.50;0.43;;;;;;;;;;5959643;28;20039;-77
2023/07/26 09:27:30;;;;;;;0.65;0.50;;;;;;;;;;5941309;28;20132;-76
2023/07/26 09:30:21;;;;;;;1.52;1.20;;;;;;;;;;5959756;28;20474;-77
2023/07/26 09:33:12;;;;;;;1.20;1.10;;;;;;;;;;5951215;28;20043;-78
2023/07/26 09:36:04;;;;;;;0.68;0.68;;;;;;;;;;5941877;28;20039;-77
2023/07/26 09:38:55;;;;;;;0.43;0.43;;;;;;;;;;5951564;28;20115;-77
2023/07/26 09:41:46;;;;;;;4.35;0.60;;;;;;;;;;5954340;28;20486;-78
2023/07/26 09:44:37;;;;;;;0.45;0.45;;;;;;;;;;5956186;28;20387;-78
2023/07/26 09:47:37;;;;;;;0.43;0.43;;;;;;;;;;5941095;28;20043;-77
2023/07/26 09:50:31;;;;;;;0.52;0.52;;;;;;;;;;5959201;28;20150;-77
2023/07/26 09:53:24;;;;;;;1.38;0.73;;;;;;;;;;5950880;28;20035;-78
2023/07/26 09:56:15;;;;;;;1.65;0.95;;;;;;;;;;5958333;28;20051;-77
2023/07/26 09:59:11;;;;;;;0.17;0.17;;;;;;;;;;5951377;28;20093;-78
2023/07/26 10:02:08;;;;;;;0.40;0.40;;;;;;;;;;5940850;28;20047;-77
2023/07/26 10:05:03;;;;;;;2.70;0.40;;;;;;;;;;5941244;28;20044;-78
2023/07/26 10:07:55;;;;;;;0.10;0.10;;;;;;;;;;5959208;28;20127;-77
2023/07/26 10:10:48;;;;;;;0.40;0.40;;;;;;;;;;5941087;28;20173;-77
2023/07/26 10:13:41;;;;;;;0.55;0.52;;;;;;;;;;5959066;28;20070;-76
2023/07/26 10:16:32;;;;;;;1.08;0.57;;;;;;;;;;5940786;28;20051;-77
2023/07/26 10:19:25;;;;;;;0.68;0.68;;;;;;;;;;5958478;28;20040;-77
2023/07/26 10:22:17;;;;;;;0.28;0.28;;;;;;;;;;5958596;28;20051;-77
2023/07/26 10:25:08;;;;;;;0.73;0.47;;;;;;;;;;5940729;28;20358;-77
2023/07/26 10:28:00;;;;;;;0.68;0.63;;;;;;;;;;5959037;28;20059;-77
2023/07/26 10:30:55;;;;;;;0.55;0.55;;;;;;;;;;5958498;28;20047;-76
2023/07/26 10:33:46;;;;;;;0.50;0.50;;;;;;;;;;5940001;28;20058;-77
2023/07/26 10:36:39;;;;;;;1.33;1.05;;;;;;;;;;5958492;28;20123;-77
2023/07/26 10:39:34;;;;;;;2.47;1.13;;;;;;;;;;5958306;28;20042;-77
2023/07/26 10:42:29;;;;;;;1.08;0.70;;;;;;;;;;5940408;28;20053;-78
2023/07/26 10:45:53;;;;;;;0.40;0.40;;;;;;;;;;5958076;28;20044;-78
2023/07/26 10:48:43;;;;;;;0.47;0.43;;;;;;;;;;5925660;28;20188;-77
2023/07/26 10:51:58;;;;;;;0.95;0.70;;;;;;;;;;5957827;28;20047;-77
2023/07/26 10:54:51;;;;;;;0.55;0.55;;;;;;;;;;5958065;28;20051;-77
2023/07/26 10:57:48;;;;;;;1.10;0.32;;;;;;;;;;5958057;28;20051;-77
2023/07/26 11:00:39;;;;;;;0.10;0.10;;;;;;;;;;5939986;28;20040;-78
2023/07/26 11:03:31;;;;;;;0.20;0.20;;;;;;;;;;5949399;28;20063;-77
2023/07/26 11:06:21;;;;;;;0.10;0.10;;;;;;;;;;5956596;28;20058;-76
2023/07/26 11:09:50;;;;;;;0.43;0.43;;;;;;;;;;5933343;28;20085;-77
2023/07/26 11:12:41;;;;;;;;;;;;;;;;;;5931562;28;20121;-77
2023/07/26 11:15:34;;;;;;;0.35;0.35;;;;;;;;;;5932152;28;20333;-77
2023/07/26 11:18:45;;;;;;;0.20;0.13;;;;;;;;;;5936042;28;20051;-77
2023/07/26 11:21:36;;;;;;;0.63;0.52;;;;;;;;;;5935730;28;20050;-77
2023/07/26 11:24:27;;;;;;;0.25;0.20;;;;;;;;;;5936216;28;20484;-77
2023/07/26 11:27:18;;;;;;;1.60;0.50;;;;;;;;;;5935827;28;20044;-77
2023/07/26 11:30:17;;;;;;;1.05;0.90;;;;;;;;;;5936070;28;20662;-78
2023/07/26 11:33:09;;;;;;;1.45;0.65;;;;;;;;;;5935644;28;20186;-77
2023/07/26 11:36:02;;;;;;;0.13;0.13;;;;;;;;;;5936305;28;20089;-78
2023/07/26 11:38:53;;;;;;;0.63;0.40;;;;;;;;;;5919020;28;20054;-77
2023/07/26 11:41:43;;;;;;;0.10;0.10;;;;;;;;;;5935459;28;20068;-78
2023/07/26 11:44:35;;;;;;;0.20;0.20;;;;;;;;;;5943175;28;20123;-77
2023/07/26 11:47:25;;;;;;;0.10;0.10;;;;;;;;;;5962068;28;20039;-77
2023/07/26 11:50:19;;;;;;;0.38;0.20;;;;;;;;;;5962176;28;20048;-78
2023/07/26 11:53:14;;;;;;;0.35;0.32;;;;;;;;;;5943707;28;20043;-77
2023/07/26 11:56:17;;;;;;;0.10;0.10;;;;;;;;;;5961732;28;20382;-77
2023/07/26 11:59:10;;;;;;;2.35;0.73;;;;;;;;;;5961673;28;20127;-78
2023/07/26 12:02:02;;;;;;;0.10;0.10;;;;;;;;;;5943736;28;20083;-76
2023/07/26 12:05:25;;;;;;;0.77;0.65;;;;;;;;;;5962288;28;20519;-78
2023/07/26 12:08:17;;;;;;;1.05;0.90;;;;;;;;;;5947204;28;20057;-78
2023/07/26 12:11:08;;;;;;;0.93;0.75;;;;;;;;;;5961704;28;20550;-77
2023/07/26 12:13:59;;;;;;;0.45;0.45;;;;;;;;;;5962216;28;20045;-78
2023/07/26 12:16:53;;;;;;;0.75;0.47;;;;;;;;;;5943315;28;20065;-77
2023/07/26 12:19:44;;;;;;;1.95;0.43;;;;;;;;;;5961270;28;20375;-79
2023/07/26 12:22:51;;;;;;;2.05;0.30;;;;;;;;;;5952915;28;20635;-76
2023/07/26 12:25:42;;;;;;;2.03;0.98;;;;;;;;;;5961485;28;20044;-77
2023/07/26 12:28:38;;;;;;;0.25;0.25;;;;;;;;;;5951887;28;20470;-78
2023/07/26 12:31:32;;;;;;;0.63;0.63;;;;;;;;;;5961033;28;20036;-78
2023/07/26 12:34:32;;;;;;;0.28;0.25;;;;;;;;;;5961117;28;20040;-78
2023/07/26 12:37:30;;;;;;;0.22;0.22;;;;;;;;;;5942624;28;20044;-78
2023/07/26 12:40:21;;;;;;;0.30;0.30;;;;;;;;;;5960892;28;20079;-78
2023/07/26 12:43:20;;;;;;;1.10;0.40;;;;;;;;;;5952284;28;20157;-78
2023/07/26 12:46:12;;;;;;;0.57;0.57;;;;;;;;;;5942729;28;20044;-77
2023/07/26 12:49:06;;;;;;;1.30;0.32;;;;;;;;;;5960864;28;20511;-78
2023/07/26 12:51:57;;;;;;;2.42;1.70;;;;;;;;;;5954587;28;20157;-78
2023/07/26 12:54:48;;;;;;;0.88;0.70;;;;;;;;;;5958988;28;20048;-77
2023/07/26 12:57:39;;;;;;;0.43;0.43;;;;;;;;;;5952389;28;20047;-77
2023/07/26 13:00:31;;;;;;;0.57;0.57;;;;;;;;;;5960487;28;20051;-77
2023/07/26 13:03:22;;;;;;;0.30;0.30;;;;;;;;;;5951798;28;20066;-77
2023/07/26 13:06:13;;;;;;;0.65;0.47;;;;;;;;;;5960113;28;20513;-78
2023/07/26 13:09:04;;;;;;;0.55;0.50;;;;;;;;;;5934506;28;20035;-77
2023/07/26 13:11:55;;;;;;;1.15;0.65;;;;;;;;;;5960407;28;20048;-77
2023/07/26 13:14:46;;;;;;;6.30;1.17;;;;;;;;;;5960095;28;20482;-78
2023/07/26 13:17:37;;;;;;;0.40;0.40;;;;;;;;;;5959820;28;20122;-78
2023/07/26 13:20:29;;;;;;;0.52;0.52;;;;;;;;;;5960185;28;20055;-78
2023/07/26 13:23:20;;;;;;;0.28;0.28;;;;;;;;;;5960024;28;20055;-78
2023/07/26 13:26:10;;;;;;;4.95;0.45;;;;;;;;;;5959734;28;20505;-78
2023/07/26 13:29:01;;;;;;;0.63;0.55;;;;;;;;;;5960106;28;20042;-78
2023/07/26 13:31:52;;;;;;;0.30;0.30;;;;;;;;;;5960328;28;20049;-78
2023/07/26 13:34:43;;;;;;;0.30;0.30;;;;;;;;;;5959577;28;20417;-77
2023/07/26 13:37:37;;;;;;;0.10;0.10;;;;;;;;;;5959676;28;20050;-78
2023/07/26 13:40:27;;;;;;;0.38;0.38;;;;;;;;;;5959655;28;20516;-78
2023/07/26 13:43:20;;;;;;;0.25;0.25;;;;;;;;;;5959060;28;20070;-78
2023/07/26 13:46:10;;;;;;;1.17;0.40;;;;;;;;;;5959080;28;20040;-77
2023/07/26 13:49:05;;;;;;;0.52;0.38;;;;;;;;;;5959570;28;20059;-77
2023/07/26 13:51:56;;;;;;;0.30;0.30;;;;;;;;;;5959303;28;20043;-78
2023/07/26 13:54:47;;;;;;;1.38;0.65;;;;;;;;;;5941209;28;20047;-78
2023/07/26 13:57:38;;;;;;;0.63;0.47;;;;;;;;;;5959020;28;20048;-77
2023/07/26 14:00:29;;;;;;;0.40;0.38;;;;;;;;;;5959081;28;20039;-77
2023/07/26 14:03:20;;;;;;;0.20;0.20;;;;;;;;;;5959079;28;20043;-77
2023/07/26 14:06:11;;;;;;;3.05;0.60;;;;;;;;;;5958584;28;20078;-78
2023/07/26 14:09:02;;;;;;;0.20;0.20;;;;;;;;;;5959127;28;20476;-78
2023/07/26 14:11:53;;;;;;;0.20;0.20;;;;;;;;;;5959150;28;20513;-77
2023/07/26 14:14:43;;;;;;;0.28;0.28;;;;;;;;;;5959037;28;20050;-77
2023/07/26 14:17:36;;;;;;;0.22;0.22;;;;;;;;;;5958624;28;20516;-78
2023/07/26 14:20:27;;;;;;;1.23;0.70;;;;;;;;;;5940741;28;20104;-77
2023/07/26 14:23:18;;;;;;;0.40;0.40;;;;;;;;;;5958732;28;20047;-77
2023/07/26 14:26:08;;;;;;;0.82;0.75;;;;;;;;;;5957843;28;20050;-77
2023/07/26 14:28:59;;;;;;;0.68;0.68;;;;;;;;;;5959371;28;20047;-77
2023/07/26 14:31:52;;;;;;;8.18;0.50;;;;;;;;;;5958524;27;20040;-78
2023/07/26 14:34:44;;;;;;;0.55;0.20;;;;;;;;;;5940535;28;20112;-77
2023/07/26 14:37:35;;;;;;;0.40;0.40;;;;;;;;;;5957983;28;20044;-78
2023/07/26 14:40:25;;;;;;;0.70;0.70;;;;;;;;;;5958397;28;20044;-77
2023/07/26 14:43:16;;;;;;;0.32;0.32;;;;;;;;;;5957997;28;20043;-78
2023/07/26 14:46:08;;;;;;;0.65;0.30;;;;;;;;;;5940182;28;20048;-77
2023/07/26 14:48:59;;;;;;;0.40;0.25;;;;;;;;;;5958625;28;20035;-78
2023/07/26 14:51:50;;;;;;;1.92;0.60;;;;;;;;;;5957572;28;20039;-78
2023/07/26 14:54:41;;;;;;;1.00;0.30;;;;;;;;;;5958108;28;20043;-77
2023/07/26 14:57:32;;;;;;;16.02;0.80;;;;;;;;;;5957914;28;20047;-79
2023/07/26 15:00:23;;;;;;;0.20;0.20;;;;;;;;;;5958330;28;20044;-77
2023/07/26 15:03:14;;;;;;;0.80;0.47;;;;;;;;;;5958105;28;20043;-77
2023/07/26 15:06:05;;;;;;;0.35;0.35;;;;;;;;;;5958131;28;20048;-77
2023/07/26 15:08:55;;;;;;;0.60;0.57;;;;;;;;;;5958280;28;20391;-77
2023/07/26 15:11:46;;;;;;;0.70;0.50;;;;;;;;;;5939969;28;20047;-77
2023/07/26 15:14:39;;;;;;;4.32;0.57;;;;;;;;;;5958056;28;20043;-77
2023/07/26 15:17:30;;;;;;;1.17;0.75;;;;;;;;;;5957731;28;20491;-77
2023/07/26 15:20:21;;;;;;;1.10;0.43;;;;;;;;;;5939815;28;20071;-77
2023/07/26 15:23:12;;;;;;;1.30;0.45;;;;;;;;;;5957809;28;20044;-76
2023/07/26 15:26:03;;;;;;;0.20;0.20;;;;;;;;;;5958019;28;20048;-77
2023/07/26 15:28:54;;;;;;;0.17;0.17;;;;;;;;;;5958075;28;20190;-77
2023/07/26 15:31:45;;;;;;;0.15;0.15;;;;;;;;;;5957758;28;20047;-77
2023/07/26 15:34:35;;;;;;;0.10;0.10;;;;;;;;;;5957657;28;20048;-77
2023/07/26 15:37:27;;;;;;;0.28;0.28;;;;;;;;;;5931120;28;20062;-77
2023/07/26 15:40:18;;;;;;;0.20;0.20;;;;;;;;;;5957659;28;20036;-77
2023/07/26 15:43:11;;;;;;;0.40;0.40;;;;;;;;;;5949024;28;20046;-77
2023/07/26 15:46:05;;;;;;;0.90;0.70;;;;;;;;;;5957820;28;20421;-76
2023/07/26 15:49:16;;;;;;;0.90;0.35;;;;;;;;;;5957335;28;20052;-77
2023/07/26 15:52:07;;;;;;;0.93;0.75;;;;;;;;;;5957450;28;20075;-77
2023/07/26 15:54:58;;;;;;;1.10;0.25;;;;;;;;;;5940255;28;20044;-77
2023/07/26 15:57:49;;;;;;;1.15;0.68;;;;;;;;;;5949198;28;20044;-77
2023/07/26 16:00:40;;;;;;;1.95;1.00;;;;;;;;;;5957538;28;20389;-77
2023/07/26 16:03:31;;;;;;;4.78;0.90;;;;;;;;;;5951107;28;20050;-77
2023/07/26 16:06:24;;;;;;;0.93;0.45;;;;;;;;;;5961577;28;20040;-77
2023/07/26 16:09:21;;;;;;;0.43;0.43;;;;;;;;;;5961574;28;20047;-77
2023/07/26 16:12:15;;;;;;;0.40;0.30;;;;;;;;;;5953259;28;20043;-77
2023/07/26 16:15:09;;;;;;;1.27;0.85;;;;;;;;;;5961526;28;20406;-78
2023/07/26 16:18:04;;;;;;;7.40;1.25;;;;;;;;;;5953220;28;20039;-77
2023/07/26 16:20:57;;;;;;;0.20;0.20;;;;;;;;;;5962160;28;20054;-77
2023/07/26 16:23:51;;;;;;;1.15;1.02;;;;;;;;;;5953269;28;20055;-77
2023/07/26 16:26:42;;;;;;;0.82;0.60;;;;;;;;;;5961249;28;20039;-77
2023/07/26 16:29:33;;;;;;;1.02;0.82;;;;;;;;;;5961127;28;20044;-77
2023/07/26 16:32:23;;;;;;;0.22;0.22;;;;;;;;;;5952629;28;20409;-77
2023/07/26 16:35:14;;;;;;;0.93;0.60;;;;;;;;;;5961120;28;20054;-77
2023/07/26 16:38:06;;;;;;;0.90;0.88;;;;;;;;;;5952394;28;20044;-78
2023/07/26 16:40:57;;;;;;;0.22;0.22;;;;;;;;;;5961547;28;20146;-76
2023/07/26 16:43:48;;;;;;;1.20;0.68;;;;;;;;;;5952208;28;20042;-77
2023/07/26 16:46:39;;;;;;;0.60;0.60;;;;;;;;;;5960752;28;20124;-76
2023/07/26 16:49:33;;;;;;;1.00;0.90;;;;;;;;;;5943214;28;20051;-77
2023/07/26 16:52:24;;;;;;;5.72;1.50;;;;;;;;;;5934405;28;20067;-77
2023/07/26 16:55:15;;;;;;;3.00;1.48;;;;;;;;;;5960639;28;20047;-77
2023/07/26 16:58:06;;;;;;;8.65;1.50;;;;;;;;;;5952128;28;20461;-76
2023/07/26 17:00:56;;;;;;;1.85;1.35;;;;;;;;;;5961233;28;20046;-77
2023/07/26 17:03:47;;;;;;;2.40;2.10;;;;;;;;;;5952101;28;20123;-77
2023/07/26 17:06:39;;;;;;;4.20;2.10;;;;;;;;;;5960308;28;20493;-77
2023/07/26 17:09:30;;;;;;;2.70;2.03;;;;;;;;;;5960387;28;20075;-77
2023/07/26 17:12:21;;;;;;;3.55;2.63;;;;;;;;;;5951727;28;20135;-77